Ship Status Report: callsign AMOUK21

sailwx.info

Track history (hours):
 
Tides and Currents Weather Stations Pressure Air Temp Water Temp Dewpoint Dewpoint Depression Visibility Wind Speed Wind Dir Waves Ship Positions

Callsign AMOUK21 (name unknown)

Last reported at 2014-Dec-21 09:00 UTC. Time now 2014-Dec-21 10:40 UTC.
Position N 57°00' W 007°30'.

Barometer 1006.5 mb
Air temperature 10.2 ° C
Dewpoint 9.4 ° C

Date/timePositionNaut miles runAvg speedWind from/ knotsBaromVisibWave heightAir tempDewpointWater temp
2014-Dec-21 09:00N 57°00' W 007°30'0 0.0 1006.5 10.2 9.4
2014-Dec-21 07:00N 57°00' W 007°30'0 0.0 1007.1 9.9 9.0
2014-Dec-21 06:00N 57°00' W 007°30'0 0.0 1008.1 10.0 9.1
2014-Dec-21 05:00N 57°00' W 007°30'0 0.0 1009.4 9.9 9.0
2014-Dec-21 04:00N 57°00' W 007°30'0 0.0 1010.3 9.7 8.7
2014-Dec-21 03:00N 57°00' W 007°30'0 0.0 1011.8 9.5 8.2
2014-Dec-21 02:00N 57°00' W 007°30'0 0.0 1013.2 9.4 7.9
2014-Dec-21 01:00N 57°00' W 007°30'0 0.0 1014.4 9.0 7.7
2014-Dec-21 00:00N 57°00' W 007°30'0 0.0 1015.7 8.7 7.1
2014-Dec-20 23:00N 57°00' W 007°30'9 8.9 1016.6 8.9 6.5
2014-Dec-20 22:00N 56°54' W 007°18'1717.5 1015.1 9.3 6.3
2014-Dec-20 21:00N 56°48' W 006°48'1414.5 1017.2 8.8 6.1
2014-Dec-20 20:00N 56°42' W 006°24'1414.5 1019.2 7.9 6.1
2014-Dec-20 19:00N 56°36' W 006°00'1514.5 1021.2 7.7 5.6
2014-Dec-20 18:00N 56°30' W 005°36'7 6.9 1021.2 7.3 4.8
2014-Dec-20 17:00N 56°24' W 005°30'1514.6 1021.7 7.6 3.4
2014-Dec-20 16:00N 56°30' W 005°54'1615.6 1021.0 7.8 4.5
2014-Dec-20 15:00N 56°42' W 006°12'1211.6 1020.7 8.9 4.6
2014-Dec-20 14:00N 56°36' W 006°30'1211.6 1020.5 8.1 4.5
2014-Dec-20 13:00N 56°30' W 006°48'1514.5 1021.6 8.9 4.3
2014-Dec-20 12:00N 56°36' W 006°24'1313.2 1020.0 8.6 3.6
2014-Dec-20 11:00N 56°36' W 006°00'1514.5 1019.5 7.9 4.1
2014-Dec-20 10:00N 56°30' W 005°36'7 6.9 1017.7 6.9 4.0
2014-Dec-20 09:00N 56°24' W 005°30'0 0.0 1016.9 6.4 3.4
2014-Dec-20 07:00N 56°24' W 005°30'0 0.0 1014.7 6.5 3.7
2014-Dec-20 06:00N 56°24' W 005°30'0 0.0 1013.1 8.2 2.6
2014-Dec-20 05:00N 56°24' W 005°30'0 0.0 1012.4 7.9 2.8
2014-Dec-20 04:00N 56°24' W 005°30'0 0.0 1012.0 5.9 2.9
2014-Dec-20 03:00N 56°24' W 005°30'0 0.0 1011.1 7.3 2.7
2014-Dec-20 02:00N 56°24' W 005°30'0 0.0 1010.5 7.4 3.0
2014-Dec-20 01:00N 56°24' W 005°30'0 0.0 1010.2 6.6 3.5
2014-Dec-20 00:00N 56°24' W 005°30'0 0.0 1009.1 7.5 2.7
2014-Dec-19 23:00N 56°24' W 005°30'0 0.0 1008.7 7.0 3.1
2014-Dec-19 22:00N 56°24' W 005°30'0 0.0 1008.2 7.1 2.7
2014-Dec-19 21:00N 56°24' W 005°30'0 0.0 1008.0 7.7 1.6
2014-Dec-19 20:00N 56°24' W 005°30'0 0.0 1008.1 6.2 1.9
2014-Dec-19 19:00N 56°24' W 005°30'0 0.0 1007.3 7.5 1.3
2014-Dec-19 18:00N 56°24' W 005°30'0 0.0 1006.9 6.1 2.2
2014-Dec-19 17:00N 56°24' W 005°30'0 0.0 1005.8 7.2 1.6
2014-Dec-19 16:00N 56°24' W 005°30'0 0.0 1005.1 6.6 1.3
2014-Dec-19 15:00N 56°24' W 005°30'1514.6 1004.8 7.0 2.1
2014-Dec-19 14:00N 56°30' W 005°54'3 3.3 1003.8 6.1 2.1
2014-Dec-19 13:00N 56°30' W 005°48'9 8.9 1002.6 6.6 1.7
2014-Dec-19 12:00N 56°24' W 005°36'3 3.3 1002.6 5.9 1.1
2014-Dec-19 11:00N 56°24' W 005°30'0 0.0 1002.7 5.7-0.1
2014-Dec-19 10:00N 56°24' W 005°30'0 0.0 1002.0 6.5 0.4
2014-Dec-19 09:00N 56°24' W 005°30'0 0.0 1001.0 5.0 0.7
2014-Dec-19 08:00N 56°24' W 005°30'0 0.0 1000.1 6.1 0.8
2014-Dec-19 07:00N 56°24' W 005°30'0 0.0 998.7 6.6-0.6
2014-Dec-19 06:00N 56°24' W 005°30'0 0.0 998.4 5.4 1.1
2014-Dec-19 05:00N 56°24' W 005°30'0 0.0 997.9 4.5 0.1
2014-Dec-19 04:00N 56°24' W 005°30'0 0.0 997.0 6.3 0.9
2014-Dec-19 03:00N 56°24' W 005°30'0 0.0 996.8 6.3 1.8
2014-Dec-19 02:00N 56°24' W 005°30'0 0.0 997.1 6.5 1.8
2014-Dec-19 01:00N 56°24' W 005°30'0 0.0 997.6 5.9 1.6
2014-Dec-19 00:00N 56°24' W 005°30'0 0.0 997.5 6.2 1.5
2014-Dec-18 23:00N 56°24' W 005°30'0 0.0 997.4 5.3 1.3
2014-Dec-18 22:00N 56°24' W 005°30'0 0.0 997.3 7.1 0.6
2014-Dec-18 21:00N 56°24' W 005°30'0 0.0 996.9 7.2 0.6
2014-Dec-18 20:00N 56°24' W 005°30'0 0.0 996.7 7.2 1.3
2014-Dec-18 19:00N 56°24' W 005°30'0 0.0 996.2 7.7 1.7
2014-Dec-18 18:00N 56°24' W 005°30'0 0.0 996.0 8.0 2.5
2014-Dec-18 17:00N 56°24' W 005°30'3 3.3 995.3 7.4 4.4
2014-Dec-18 16:00N 56°24' W 005°36'3 3.3 993.9 8.0 3.9
2014-Dec-18 15:00N 56°24' W 005°30'0 0.0 994.1 8.1 4.1
2014-Dec-18 14:00N 56°24' W 005°30'1817.9 993.8 8.0 5.2
2014-Dec-18 13:00N 56°36' W 005°54'1414.5 993.6 8.0 6.1
2014-Dec-18 12:00N 56°42' W 006°18'1414.5 992.9 8.2 6.1
2014-Dec-18 11:00N 56°48' W 006°42'1414.4 992.5 7.9 5.8
2014-Dec-18 10:00N 56°54' W 007°06'1414.4 991.9 8.7 5.7
2014-Dec-18 09:00N 57°00' W 007°30'7 6.5 991.6 7.8 5.3
2014-Dec-18 08:00N 57°00' W 007°18'1212.0 991.2 7.8 5.1
2014-Dec-18 07:00N 57°12' W 007°18'0 0.0 991.5 7.6 5.5
2014-Dec-18 06:00N 57°12' W 007°18'0 0.0 991.5 8.5 5.3
2014-Dec-18 05:00N 57°12' W 007°18'0 0.0 991.9 8.7 4.7
2014-Dec-18 04:00N 57°12' W 007°18'0 0.0 992.5 8.9 4.9
2014-Dec-18 03:00N 57°12' W 007°18'0 0.0 992.8 8.9 4.6
2014-Dec-18 02:00N 57°12' W 007°18'0 0.0 993.1 9.2 4.2
2014-Dec-18 01:00N 57°12' W 007°18'0 0.0 994.0 9.1 3.8
2014-Dec-18 00:00N 57°12' W 007°18'0 0.0 994.1 8.8 4.7
2014-Dec-17 23:00N 57°12' W 007°18'0 0.0 994.8 8.7 2.4
2014-Dec-17 22:00N 57°12' W 007°18'0 0.0 994.8 8.8 3.7
2014-Dec-17 21:00N 57°12' W 007°18'1212.0 994.8 8.8 4.0
2014-Dec-17 20:00N 57°00' W 007°18'9 8.9 996.1 9.4 4.5
2014-Dec-17 19:00N 56°54' W 007°30'1313.1 995.7 9.0 2.1
2014-Dec-17 18:00N 56°54' W 007°06'1414.4 995.2 9.6 3.3
2014-Dec-17 17:00N 56°48' W 006°42'1414.5 996.4 9.4 4.9
2014-Dec-17 16:00N 56°42' W 006°18'1817.8 996.1 9.4 5.5
2014-Dec-17 15:00N 56°30' W 005°54'1514.6 997.7 8.9 5.9
2014-Dec-17 14:00N 56°24' W 005°30'0 0.0 997.0 9.4 5.2
2014-Dec-17 13:00N 56°24' W 005°30'0 0.0 998.0 9.1 5.7
2014-Dec-17 12:00N 56°24' W 005°30'0 0.0 998.0 9.5 5.3
2014-Dec-17 11:00N 56°24' W 005°30'0 0.0 998.3 9.8 5.1
2014-Dec-17 10:00N 56°24' W 005°30'0 0.0 998.3 9.7 4.8
2014-Dec-17 09:00N 56°24' W 005°30'0 0.0 997.9 9.9 5.2
2014-Dec-17 08:00N 56°24' W 005°30'0 0.0 997.5 9.5 7.1
2014-Dec-17 07:00N 56°24' W 005°30'0 0.0 997.0 9.7 7.6
2014-Dec-17 06:00N 56°24' W 005°30'0 0.0 996.1 9.5 7.8
2014-Dec-17 05:00N 56°24' W 005°30'0 0.0 996.0 10.3 8.1
2014-Dec-17 04:00N 56°24' W 005°30'0 0.0 995.7 10.6 8.6
2014-Dec-17 03:00N 56°24' W 005°30'0 0.0 995.4 10.6 8.9
2014-Dec-17 02:00N 56°24' W 005°30'0 0.0 994.5 10.7 9.3
2014-Dec-17 01:00N 56°24' W 005°30'0 0.0 993.9 10.4 9.0
2014-Dec-17 00:00N 56°24' W 005°30'0 0.0 993.6 10.2 9.0
2014-Dec-16 23:00N 56°24' W 005°30'0 0.0 992.9 10.1 9.0
2014-Dec-16 22:00N 56°24' W 005°30'0 0.0 994.0 7.4 5.9
2014-Dec-16 21:00N 56°24' W 005°30'0 0.0 995.6 6.7 4.8
2014-Dec-16 20:00N 56°24' W 005°30'0 0.0 997.9 5.8 3.7
2014-Dec-16 19:00N 56°24' W 005°30'0 0.0 1000.4 5.5 3.5
2014-Dec-16 18:00N 56°24' W 005°30'0 0.0 1002.8 5.4 3.6
2014-Dec-16 17:00N 56°24' W 005°30'   1004.6 5.1 2.5
2014-Dec-14 02:00N 56°24' W 005°30'0 0.0 996.0 8.4 6.9
2014-Dec-14 01:00N 56°24' W 005°30'0 0.0 996.7 8.3 6.7
2014-Dec-14 00:00N 56°24' W 005°30'0 0.0 997.6 8.0 6.4
2014-Dec-13 00:00N 56°24' W 005°30'0 0.0 1003.7 4.3-0.1
2014-Dec-12 23:00N 56°24' W 005°30'0 0.0 1002.8 4.3-0.5
2014-Dec-12 22:00N 56°24' W 005°30'0 0.0 1002.0 4.7 0.6
2014-Dec-12 21:00N 56°24' W 005°30'1211.6 1000.8 4.6 0.2
2014-Dec-12 20:00N 56°30' W 005°48'1817.8 1000.2 5.0 0.4
2014-Dec-12 19:00N 56°42' W 006°12'1414.5 997.5 5.8-0.7
2014-Dec-12 18:00N 56°36' W 006°36'3 1.7 995.6 6.2 1.7
2014-Dec-12 16:00N 56°36' W 006°30'3511.7 994.5 6.3-0.0
2014-Dec-12 13:00N 56°24' W 005°30'2713.4 990.3 4.7 2.5
2014-Dec-12 11:00N 56°42' W 006°06'1817.5 988.4 5.8 3.2
2014-Dec-12 10:00N 56°48' W 006°36'1414.4 987.8 6.3 3.3
2014-Dec-12 09:00N 56°54' W 007°00'12 5.8 987.7 5.0 2.9
2014-Dec-12 07:00N 57°00' W 007°18'9 4.4 986.2 6.2 0.4
2014-Dec-12 05:00N 57°06' W 007°06'1414.4 986.1 5.4 1.0
2014-Dec-12 04:00N 57°00' W 006°42'1615.5 985.9 5.9 1.1
2014-Dec-12 03:00N 56°48' W 006°24'9 8.9 986.0 5.5 0.9
2014-Dec-12 02:00N 56°42' W 006°12'1615.6 986.9 3.8 1.8
2014-Dec-12 01:00N 56°30' W 005°54'1514.6 988.4 2.4 0.3
2014-Dec-12 00:00N 56°24' W 005°30'0 0.0 988.5 2.6 0.1
2014-Dec-11 23:00N 56°24' W 005°30'0 0.0 989.8 2.9 0.7
2014-Dec-11 22:00N 56°24' W 005°30'0 0.0 990.7 3.1-0.2
2014-Dec-11 21:00N 56°24' W 005°30'0 0.0 990.9 3.7 0.3
2014-Dec-11 20:00N 56°24' W 005°30'0 0.0 990.8 5.0-0.4
2014-Dec-11 19:00N 56°24' W 005°30'0 0.0 991.2 3.7-0.4
2014-Dec-11 18:00N 56°24' W 005°30'0 0.0 991.6 4.3 1.0
2014-Dec-11 17:00N 56°24' W 005°30'0 0.0 992.0 4.3 0.4
2014-Dec-11 16:00N 56°24' W 005°30'0 0.0 992.2 4.5-0.6
2014-Dec-11 15:00N 56°24' W 005°30'0 0.0 991.9 5.4 0.3
2014-Dec-11 14:00N 56°24' W 005°30'0 0.0 992.1 5.7-2.7
2014-Dec-11 13:00N 56°24' W 005°30'0 0.0 992.5 4.9-0.1
2014-Dec-11 12:00N 56°24' W 005°30'0 0.0 992.4 6.4-0.9
2014-Dec-11 11:00N 56°24' W 005°30'0 0.0 992.6 4.7-0.3
2014-Dec-11 10:00N 56°24' W 005°30'0 0.0 992.4 4.6 0.8
2014-Dec-11 09:00N 56°24' W 005°30'   991.9 5.8-0.0
Track history (hours):
 
Tides and Currents Weather Stations Pressure Air Temp Water Temp Dewpoint Dewpoint Depression Visibility Wind Speed Wind Dir Waves Ship Positions

Callsign AMOUK21 (name unknown)

Last reported at 2014-Dec-21 09:00 UTC. Time now 2014-Dec-21 10:40 UTC.
Position N 57°00' W 007°30'.

Barometer 1006.5 mb
Air temperature 10.2 ° C
Dewpoint 9.4 ° C

Date/timePositionNaut miles runAvg speedWind from/ knotsBaromVisibWave heightAir tempDewpointWater temp
2014-Dec-21 09:00N 57°00' W 007°30'0 0.0 1006.5 10.2 9.4
2014-Dec-21 07:00N 57°00' W 007°30'0 0.0 1007.1 9.9 9.0
2014-Dec-21 06:00N 57°00' W 007°30'0 0.0 1008.1 10.0 9.1
2014-Dec-21 05:00N 57°00' W 007°30'0 0.0 1009.4 9.9 9.0
2014-Dec-21 04:00N 57°00' W 007°30'0 0.0 1010.3 9.7 8.7
2014-Dec-21 03:00N 57°00' W 007°30'0 0.0 1011.8 9.5 8.2
2014-Dec-21 02:00N 57°00' W 007°30'0 0.0 1013.2 9.4 7.9
2014-Dec-21 01:00N 57°00' W 007°30'0 0.0 1014.4 9.0 7.7
2014-Dec-21 00:00N 57°00' W 007°30'0 0.0 1015.7 8.7 7.1
2014-Dec-20 23:00N 57°00' W 007°30'9 8.9 1016.6 8.9 6.5
2014-Dec-20 22:00N 56°54' W 007°18'1717.5 1015.1 9.3 6.3
2014-Dec-20 21:00N 56°48' W 006°48'1414.5 1017.2 8.8 6.1
2014-Dec-20 20:00N 56°42' W 006°24'1414.5 1019.2 7.9 6.1
2014-Dec-20 19:00N 56°36' W 006°00'1514.5 1021.2 7.7 5.6
2014-Dec-20 18:00N 56°30' W 005°36'7 6.9 1021.2 7.3 4.8
2014-Dec-20 17:00N 56°24' W 005°30'1514.6 1021.7 7.6 3.4
2014-Dec-20 16:00N 56°30' W 005°54'1615.6 1021.0 7.8 4.5
2014-Dec-20 15:00N 56°42' W 006°12'1211.6 1020.7 8.9 4.6
2014-Dec-20 14:00N 56°36' W 006°30'1211.6 1020.5 8.1 4.5
2014-Dec-20 13:00N 56°30' W 006°48'1514.5 1021.6 8.9 4.3
2014-Dec-20 12:00N 56°36' W 006°24'1313.2 1020.0 8.6 3.6
2014-Dec-20 11:00N 56°36' W 006°00'1514.5 1019.5 7.9 4.1
2014-Dec-20 10:00N 56°30' W 005°36'7 6.9 1017.7 6.9 4.0
2014-Dec-20 09:00N 56°24' W 005°30'0 0.0 1016.9 6.4 3.4
2014-Dec-20 07:00N 56°24' W 005°30'0 0.0 1014.7 6.5 3.7
2014-Dec-20 06:00N 56°24' W 005°30'0 0.0 1013.1 8.2 2.6
2014-Dec-20 05:00N 56°24' W 005°30'0 0.0 1012.4 7.9 2.8
2014-Dec-20 04:00N 56°24' W 005°30'0 0.0 1012.0 5.9 2.9
2014-Dec-20 03:00N 56°24' W 005°30'0 0.0 1011.1 7.3 2.7
2014-Dec-20 02:00N 56°24' W 005°30'0 0.0 1010.5 7.4 3.0
2014-Dec-20 01:00N 56°24' W 005°30'0 0.0 1010.2 6.6 3.5
2014-Dec-20 00:00N 56°24' W 005°30'0 0.0 1009.1 7.5 2.7
2014-Dec-19 23:00N 56°24' W 005°30'0 0.0 1008.7 7.0 3.1
2014-Dec-19 22:00N 56°24' W 005°30'0 0.0 1008.2 7.1 2.7
2014-Dec-19 21:00N 56°24' W 005°30'0 0.0 1008.0 7.7 1.6
2014-Dec-19 20:00N 56°24' W 005°30'0 0.0 1008.1 6.2 1.9
2014-Dec-19 19:00N 56°24' W 005°30'0 0.0 1007.3 7.5 1.3
2014-Dec-19 18:00N 56°24' W 005°30'0 0.0 1006.9 6.1 2.2
2014-Dec-19 17:00N 56°24' W 005°30'0 0.0 1005.8 7.2 1.6
2014-Dec-19 16:00N 56°24' W 005°30'0 0.0 1005.1 6.6 1.3
2014-Dec-19 15:00N 56°24' W 005°30'1514.6 1004.8 7.0 2.1
2014-Dec-19 14:00N 56°30' W 005°54'3 3.3 1003.8 6.1 2.1
2014-Dec-19 13:00N 56°30' W 005°48'9 8.9 1002.6 6.6 1.7
2014-Dec-19 12:00N 56°24' W 005°36'3 3.3 1002.6 5.9 1.1
2014-Dec-19 11:00N 56°24' W 005°30'0 0.0 1002.7 5.7-0.1
2014-Dec-19 10:00N 56°24' W 005°30'0 0.0 1002.0 6.5 0.4
2014-Dec-19 09:00N 56°24' W 005°30'0 0.0 1001.0 5.0 0.7
2014-Dec-19 08:00N 56°24' W 005°30'0 0.0 1000.1 6.1 0.8
2014-Dec-19 07:00N 56°24' W 005°30'0 0.0 998.7 6.6-0.6
2014-Dec-19 06:00N 56°24' W 005°30'0 0.0 998.4 5.4 1.1
2014-Dec-19 05:00N 56°24' W 005°30'0 0.0 997.9 4.5 0.1
2014-Dec-19 04:00N 56°24' W 005°30'0 0.0 997.0 6.3 0.9
2014-Dec-19 03:00N 56°24' W 005°30'0 0.0 996.8 6.3 1.8
2014-Dec-19 02:00N 56°24' W 005°30'0 0.0 997.1 6.5 1.8
2014-Dec-19 01:00N 56°24' W 005°30'0 0.0 997.6 5.9 1.6
2014-Dec-19 00:00N 56°24' W 005°30'0 0.0 997.5 6.2 1.5
2014-Dec-18 23:00N 56°24' W 005°30'0 0.0 997.4 5.3 1.3
2014-Dec-18 22:00N 56°24' W 005°30'0 0.0 997.3 7.1 0.6
2014-Dec-18 21:00N 56°24' W 005°30'0 0.0 996.9 7.2 0.6
2014-Dec-18 20:00N 56°24' W 005°30'0 0.0 996.7 7.2 1.3
2014-Dec-18 19:00N 56°24' W 005°30'0 0.0 996.2 7.7 1.7
2014-Dec-18 18:00N 56°24' W 005°30'0 0.0 996.0 8.0 2.5
2014-Dec-18 17:00N 56°24' W 005°30'3 3.3 995.3 7.4 4.4
2014-Dec-18 16:00N 56°24' W 005°36'3 3.3 993.9 8.0 3.9
2014-Dec-18 15:00N 56°24' W 005°30'0 0.0 994.1 8.1 4.1
2014-Dec-18 14:00N 56°24' W 005°30'1817.9 993.8 8.0 5.2
2014-Dec-18 13:00N 56°36' W 005°54'1414.5 993.6 8.0 6.1
2014-Dec-18 12:00N 56°42' W 006°18'1414.5 992.9 8.2 6.1
2014-Dec-18 11:00N 56°48' W 006°42'1414.4 992.5 7.9 5.8
2014-Dec-18 10:00N 56°54' W 007°06'1414.4 991.9 8.7 5.7
2014-Dec-18 09:00N 57°00' W 007°30'7 6.5 991.6 7.8 5.3
2014-Dec-18 08:00N 57°00' W 007°18'1212.0 991.2 7.8 5.1
2014-Dec-18 07:00N 57°12' W 007°18'0 0.0 991.5 7.6 5.5
2014-Dec-18 06:00N 57°12' W 007°18'0 0.0 991.5 8.5 5.3
2014-Dec-18 05:00N 57°12' W 007°18'0 0.0 991.9 8.7 4.7
2014-Dec-18 04:00N 57°12' W 007°18'0 0.0 992.5 8.9 4.9
2014-Dec-18 03:00N 57°12' W 007°18'0 0.0 992.8 8.9 4.6
2014-Dec-18 02:00N 57°12' W 007°18'0 0.0 993.1 9.2 4.2
2014-Dec-18 01:00N 57°12' W 007°18'0 0.0 994.0 9.1 3.8
2014-Dec-18 00:00N 57°12' W 007°18'0 0.0 994.1 8.8 4.7
2014-Dec-17 23:00N 57°12' W 007°18'0 0.0 994.8 8.7 2.4
2014-Dec-17 22:00N 57°12' W 007°18'0 0.0 994.8 8.8 3.7
2014-Dec-17 21:00N 57°12' W 007°18'1212.0 994.8 8.8 4.0
2014-Dec-17 20:00N 57°00' W 007°18'9 8.9 996.1 9.4 4.5
2014-Dec-17 19:00N 56°54' W 007°30'1313.1 995.7 9.0 2.1
2014-Dec-17 18:00N 56°54' W 007°06'1414.4 995.2 9.6 3.3
2014-Dec-17 17:00N 56°48' W 006°42'1414.5 996.4 9.4 4.9
2014-Dec-17 16:00N 56°42' W 006°18'1817.8 996.1 9.4 5.5
2014-Dec-17 15:00N 56°30' W 005°54'1514.6 997.7 8.9 5.9
2014-Dec-17 14:00N 56°24' W 005°30'0 0.0 997.0 9.4 5.2
2014-Dec-17 13:00N 56°24' W 005°30'0 0.0 998.0 9.1 5.7
2014-Dec-17 12:00N 56°24' W 005°30'0 0.0 998.0 9.5 5.3
2014-Dec-17 11:00N 56°24' W 005°30'0 0.0 998.3 9.8 5.1
2014-Dec-17 10:00N 56°24' W 005°30'0 0.0 998.3 9.7 4.8
2014-Dec-17 09:00N 56°24' W 005°30'0 0.0 997.9 9.9 5.2
2014-Dec-17 08:00N 56°24' W 005°30'0 0.0 997.5 9.5 7.1
2014-Dec-17 07:00N 56°24' W 005°30'0 0.0 997.0 9.7 7.6
2014-Dec-17 06:00N 56°24' W 005°30'0 0.0 996.1 9.5 7.8
2014-Dec-17 05:00N 56°24' W 005°30'0 0.0 996.0 10.3 8.1
2014-Dec-17 04:00N 56°24' W 005°30'0 0.0 995.7 10.6 8.6
2014-Dec-17 03:00N 56°24' W 005°30'0 0.0 995.4 10.6 8.9
2014-Dec-17 02:00N 56°24' W 005°30'0 0.0 994.5 10.7 9.3
2014-Dec-17 01:00N 56°24' W 005°30'0 0.0 993.9 10.4 9.0
2014-Dec-17 00:00N 56°24' W 005°30'0 0.0 993.6 10.2 9.0
2014-Dec-16 23:00N 56°24' W 005°30'0 0.0 992.9 10.1 9.0
2014-Dec-16 22:00N 56°24' W 005°30'0 0.0 994.0 7.4 5.9
2014-Dec-16 21:00N 56°24' W 005°30'0 0.0 995.6 6.7 4.8
2014-Dec-16 20:00N 56°24' W 005°30'0 0.0 997.9 5.8 3.7
2014-Dec-16 19:00N 56°24' W 005°30'0 0.0 1000.4 5.5 3.5
2014-Dec-16 18:00N 56°24' W 005°30'0 0.0 1002.8 5.4 3.6
2014-Dec-16 17:00N 56°24' W 005°30'   1004.6 5.1 2.5
2014-Dec-14 02:00N 56°24' W 005°30'0 0.0 996.0 8.4 6.9
2014-Dec-14 01:00N 56°24' W 005°30'0 0.0 996.7 8.3 6.7
2014-Dec-14 00:00N 56°24' W 005°30'0 0.0 997.6 8.0 6.4
2014-Dec-13 00:00N 56°24' W 005°30'0 0.0 1003.7 4.3-0.1
2014-Dec-12 23:00N 56°24' W 005°30'0 0.0 1002.8 4.3-0.5
2014-Dec-12 22:00N 56°24' W 005°30'0 0.0 1002.0 4.7 0.6
2014-Dec-12 21:00N 56°24' W 005°30'1211.6 1000.8 4.6 0.2
2014-Dec-12 20:00N 56°30' W 005°48'1817.8 1000.2 5.0 0.4
2014-Dec-12 19:00N 56°42' W 006°12'1414.5 997.5 5.8-0.7
2014-Dec-12 18:00N 56°36' W 006°36'3 1.7 995.6 6.2 1.7
2014-Dec-12 16:00N 56°36' W 006°30'3511.7 994.5 6.3-0.0
2014-Dec-12 13:00N 56°24' W 005°30'2713.4 990.3 4.7 2.5
2014-Dec-12 11:00N 56°42' W 006°06'1817.5 988.4 5.8 3.2
2014-Dec-12 10:00N 56°48' W 006°36'1414.4 987.8 6.3 3.3
2014-Dec-12 09:00N 56°54' W 007°00'12 5.8 987.7 5.0 2.9
2014-Dec-12 07:00N 57°00' W 007°18'9 4.4 986.2 6.2 0.4
2014-Dec-12 05:00N 57°06' W 007°06'1414.4 986.1 5.4 1.0
2014-Dec-12 04:00N 57°00' W 006°42'1615.5 985.9 5.9 1.1
2014-Dec-12 03:00N 56°48' W 006°24'9 8.9 986.0 5.5 0.9
2014-Dec-12 02:00N 56°42' W 006°12'1615.6 986.9 3.8 1.8
2014-Dec-12 01:00N 56°30' W 005°54'1514.6 988.4 2.4 0.3
2014-Dec-12 00:00N 56°24' W 005°30'0 0.0 988.5 2.6 0.1
2014-Dec-11 23:00N 56°24' W 005°30'0 0.0 989.8 2.9 0.7
2014-Dec-11 22:00N 56°24' W 005°30'0 0.0 990.7 3.1-0.2
2014-Dec-11 21:00N 56°24' W 005°30'0 0.0 990.9 3.7 0.3
2014-Dec-11 20:00N 56°24' W 005°30'0 0.0 990.8 5.0-0.4
2014-Dec-11 19:00N 56°24' W 005°30'0 0.0 991.2 3.7-0.4
2014-Dec-11 18:00N 56°24' W 005°30'0 0.0 991.6 4.3 1.0
2014-Dec-11 17:00N 56°24' W 005°30'0 0.0 992.0 4.3 0.4
2014-Dec-11 16:00N 56°24' W 005°30'0 0.0 992.2 4.5-0.6
2014-Dec-11 15:00N 56°24' W 005°30'0 0.0 991.9 5.4 0.3
2014-Dec-11 14:00N 56°24' W 005°30'0 0.0 992.1 5.7-2.7
2014-Dec-11 13:00N 56°24' W 005°30'0 0.0 992.5 4.9-0.1
2014-Dec-11 12:00N 56°24' W 005°30'0 0.0 992.4 6.4-0.9
2014-Dec-11 11:00N 56°24' W 005°30'0 0.0 992.6 4.7-0.3
2014-Dec-11 10:00N 56°24' W 005°30'0 0.0 992.4 4.6 0.8
2014-Dec-11 09:00N 56°24' W 005°30'   991.9 5.8-0.0

Dump ship's entire track history